This is the latest recevied weather packets stored in our database for station/object AD0YN. If no packets are shown the sender has not sent any weather packets the latest 1 day(s).
| Time | Temp. | Humidity | Pressure | Rain* | Wind** | Luminosity | Snow |
|---|---|---|---|---|---|---|---|
| 1777990909 | 8.89° C | 85% | 1011.9 hPa | 0 mm | 0 m/s | 59 W/m² | - |
| 1777990606 | 8.89° C | 86% | 1012 hPa | 1.78 mm | 0 m/s | 57 W/m² | - |
| 1777990303 | 8.89° C | 86% | 1012.1 hPa | 1.78 mm | 0 m/s | 58 W/m² | - |
| 1777989999 | 8.89° C | 85% | 1011.8 hPa | 1.27 mm | 0 m/s | 50 W/m² | - |
| 1777989696 | 9.44° C | 84% | 1011.6 hPa | 3.05 mm | 0 m/s | 50 W/m² | - |
| 1777989392 | 9.44° C | 82% | 1011.4 hPa | 1.78 mm | 0 m/s | 40 W/m² | - |
| 1777989089 | 9.44° C | 77% | 1011 hPa | 0 mm | 0 m/s | 46 W/m² | - |
| 1777988785 | 10° C | 74% | 1010.8 hPa | 1.27 mm | 0 m/s | 47 W/m² | - |
| 1777988482 | 10° C | 73% | 1010.5 hPa | 1.27 mm | 0 m/s | 53 W/m² | - |
| 1777988179 | 10° C | 67% | 1010.4 hPa | 0 mm | 0.45 m/s, 107° | 41 W/m² | - |
| 1777987875 | 10.56° C | 67% | 1010.4 hPa | 0 mm | 0 m/s | 40 W/m² | - |
| 1777987571 | 10.56° C | 61% | 1010.8 hPa | 0 mm | 0.45 m/s, 143° | 33 W/m² | - |
| 1777987269 | 10.56° C | 60% | 1011 hPa | 0 mm | 0 m/s | 16 W/m² | - |
| 1777986966 | 10.56° C | 63% | 1010.4 hPa | 0 mm | 0 m/s | 18 W/m² | - |
| 1777986664 | 10.56° C | 63% | 1010.4 hPa | 0 mm | 0 m/s | 23 W/m² | - |
| 1777986361 | 10.56° C | 62% | 1009.9 hPa | 0 mm | 0 m/s | 27 W/m² | - |
| 1777986060 | 10.56° C | 60% | 1010 hPa | 0 mm | 0.45 m/s, 63° | 27 W/m² | - |
| 1777985756 | 10.56° C | 60% | 1010 hPa | 0 mm | 0.45 m/s, 84° | 25 W/m² | - |
| 1777985453 | 10.56° C | 60% | 1009.8 hPa | 0 mm | 0.45 m/s, 122° | 29 W/m² | - |
| 1777985149 | 10.56° C | 58% | 1010 hPa | 0 mm | 0.89 m/s, 97° | 29 W/m² | - |
| 1777984846 | 10.56° C | 59% | 1009.8 hPa | 0 mm | 0.45 m/s, 79° | 28 W/m² | - |
| 1777984542 | 10.56° C | 59% | 1009.9 hPa | 0 mm | 0.45 m/s, 105° | 23 W/m² | - |
| 1777984238 | 11.11° C | 57% | 1009.7 hPa | 0 mm | 0.89 m/s, 83° | 27 W/m² | - |
| 1777983936 | 11.11° C | 59% | 1009.6 hPa | 0 mm | 0.89 m/s, 78° | 24 W/m² | - |
| 1777983632 | 11.11° C | 58% | 1009.6 hPa | 0 mm | 0.89 m/s, 79° | 27 W/m² | - |
* Rain latest hour (hover to see other rain measurements)
** Current wind speed in m/s (hover to see current wind gust speed)